Latest  Newer  Older  Last 2 hours animation  Current image  Latest image 
Rain/snow radar  Infrared sat images 
Real-time lightning map

All time is UTC (add 2 hours to UTC in wintertime, 3 hours to UTC in DST for Latvia local time)

2018/10/16 16:50 EVRA 161650Z 17004KT CAVOK 11/08 Q1021 R18/090095 NOSIG
2018/10/16 16:50 EVLA 161650Z AUTO 00000KT 7000 NCD 10/08 Q1021
2018/10/16 16:50 EVVA 161650Z AUTO 16003KT 5000 BR NSC 11/11 Q1020
2018/10/16 16:50 EYKA 161650Z 09001KT CAVOK 09/07 Q1022
2018/10/16 16:50 EYPA 161650Z 17003KT CAVOK 12/08 Q1021
2018/10/16 16:50 EYSA 161650Z 18008KT CAVOK 12/07 Q1022 BLU NOSIG
2018/10/16 16:50 EYVI 161650Z VRB02KT CAVOK 12/07 Q1023 NOSIG
2018/10/16 14:50 EEKA 161450Z 16003KT CAVOK 13/10 Q1019
2018/10/16 15:50 EEKE 161550Z 21006KT 8000 NSC 12/11 Q1020
2018/10/16 12:50 EEPU 161250Z 20010KT 170V230 CAVOK 13/10 Q1020
2018/10/16 16:50 EETN 161650Z 00000KT 4500 BR BCFG NSC 10/09 Q1020 TEMPO 3000
2018/10/16 16:50 EETU 161650Z AUTO 00000KT 9999 NCD 10/06 Q1021
   RIGA AIRPORT     EVRA               56 55N  023 58E   10   X     T          6 LV
   LIEPAJA INTL     EVLA        26406  56 31N  021 06E    4   X                8 LV
   VENTPILS         EVVA               57 21N  021 33E    6   X                8 LV
   KAUNAS           EYKA               54 54N  023 55E   77   X     T          6 LT
   PALANGA INTL     EYPA               55 55N  021 03E   10   X                6 LT
   SIAULIAI INTL    EYSA               55 54N  023 24E  135   X     T          6 LT
   VILNIUS INTL     EYVI        26730  54 38N  025 17E  197   X     T          6 LT
   KARDLA           EEKA        26116  58 59N  022 50E    4   X                8 EE
   KURESSAARE       EEKE               58 14N  022 31E    4   X                8 EE
   PARNU            EEPU               58 25N  024 28E   14   X                8 EE
   TALLINN          EETN        26038  59 24N  024 49E   40   X     T          8 EE
   TARTU            EETU               58 19N  026 41E   67   X                8 EE

cloud coverage image from sat24.com and METAR data from weather.noaa.gov